createdAt,value
2023-04-08T00:00:00.183Z,1003.26
2023-04-08T00:05:00.331Z,1003.33
2023-04-08T00:10:00.121Z,1003.21
2023-04-08T00:15:00.225Z,1003.21
2023-04-08T00:20:00.207Z,1003.26
2023-04-08T00:25:00.206Z,1003.3
2023-04-08T00:30:00.195Z,1003.23
2023-04-08T00:35:00.215Z,1003.22
2023-04-08T00:40:00.104Z,1003.21
2023-04-08T00:45:00.175Z,1003.12
2023-04-08T00:50:00.188Z,1003.15
2023-04-08T00:55:00.194Z,1003.21
2023-04-08T01:00:00.268Z,1003.19
2023-04-08T01:05:00.161Z,1003.14
2023-04-08T01:10:00.165Z,1003.18
2023-04-08T01:15:00.176Z,1003.18
2023-04-08T01:20:00.211Z,1003.25
2023-04-08T01:25:00.182Z,1003.26
2023-04-08T01:30:00.201Z,1003.33
2023-04-08T01:35:00.165Z,1003.26
2023-04-08T01:40:00.212Z,1003.25
2023-04-08T01:45:00.175Z,1003.2
2023-04-08T01:50:00.193Z,1003.38
2023-04-08T01:55:00.209Z,1003.3
2023-04-08T02:00:00.223Z,1003.18
2023-04-08T02:05:00.200Z,1003.18
2023-04-08T02:10:00.172Z,1003.14
2023-04-08T02:15:00.234Z,1003.12
2023-04-08T02:20:00.205Z,1003.17
2023-04-08T02:25:00.221Z,1003.25
2023-04-08T02:30:00.375Z,1003.23
2023-04-08T02:35:00.179Z,1003.22
2023-04-08T02:40:00.191Z,1003.26
2023-04-08T02:45:00.202Z,1003.24
2023-04-08T02:50:00.168Z,1003.35
2023-04-08T02:55:00.181Z,1003.32
2023-04-08T03:00:00.241Z,1003.37
2023-04-08T03:05:00.186Z,1003.36
2023-04-08T03:10:00.149Z,1003.33
2023-04-08T03:15:00.169Z,1003.37
2023-04-08T03:20:00.134Z,1003.35
2023-04-08T03:25:00.180Z,1002.72
2023-04-08T03:30:00.272Z,1002.87
2023-04-08T03:35:00.200Z,1002.88
2023-04-08T03:40:00.201Z,1002.99
2023-04-08T03:45:00.209Z,1002.96
2023-04-08T03:50:00.210Z,1003.01
2023-04-08T03:55:00.198Z,1003.12
2023-04-08T04:00:00.223Z,1003.08
2023-04-08T04:05:00.375Z,1003.02
2023-04-08T04:10:00.216Z,1003.06
2023-04-08T04:15:00.178Z,1003.06
2023-04-08T04:20:00.168Z,1003.24
2023-04-08T04:25:00.158Z,1003.2
2023-04-08T04:30:00.180Z,1003.23
2023-04-08T04:35:00.298Z,1003.39
2023-04-08T04:40:00.163Z,1003.33
2023-04-08T04:45:00.149Z,1003.35
2023-04-08T04:50:00.193Z,1003.37
2023-04-08T04:55:00.183Z,1003.44
2023-04-08T05:00:00.167Z,1003.4
2023-04-08T05:05:00.159Z,1003.43
2023-04-08T05:10:00.147Z,1003.54
2023-04-08T05:15:00.220Z,1003.61
2023-04-08T05:20:00.181Z,1003.62
2023-04-08T05:25:00.136Z,1003.73
2023-04-08T05:30:00.200Z,1003.7
2023-04-08T05:35:00.168Z,1003.81
2023-04-08T05:40:00.193Z,1003.75
2023-04-08T05:45:00.149Z,1003.75
2023-04-08T05:50:00.157Z,1003.76
2023-04-08T05:55:00.217Z,1003.77
2023-04-08T06:00:00.264Z,1003.75
2023-04-08T06:05:00.208Z,1003.88
2023-04-08T06:10:00.177Z,1003.94
2023-04-08T06:15:00.164Z,1004.01
2023-04-08T06:20:00.122Z,1004.04
2023-04-08T06:25:00.121Z,1004
2023-04-08T06:30:00.252Z,1004.06
2023-04-08T06:35:00.314Z,1004.1
2023-04-08T06:40:00.200Z,1004.31
2023-04-08T06:45:00.117Z,1004.31
2023-04-08T06:50:00.161Z,1004.39
2023-04-08T06:55:00.178Z,1004.41
2023-04-08T07:00:00.206Z,1004.43
2023-04-08T07:05:00.140Z,1004.47
2023-04-08T07:10:00.116Z,1004.43
2023-04-08T07:15:00.214Z,1004.57
2023-04-08T07:20:00.136Z,1004.62
2023-04-08T07:25:00.154Z,1004.57
2023-04-08T07:30:00.167Z,1004.64
2023-04-08T07:35:00.177Z,1004.76
2023-04-08T07:40:00.171Z,1004.66
2023-04-08T07:45:00.181Z,1004.74
2023-04-08T07:50:00.147Z,1004.73
2023-04-08T07:55:00.195Z,1004.67
2023-04-08T08:00:00.143Z,1004.8
2023-04-08T08:05:00.194Z,1004.78
2023-04-08T08:10:00.185Z,1004.88
2023-04-08T08:15:00.190Z,1004.92
2023-04-08T08:20:00.157Z,1004.91
2023-04-08T08:25:00.128Z,1005.03
2023-04-08T08:30:00.134Z,1005.02
2023-04-08T08:35:00.126Z,1005
2023-04-08T08:40:00.180Z,1005.13
2023-04-08T08:45:00.108Z,1005.14
2023-04-08T08:50:00.166Z,1005.1
2023-04-08T08:55:00.190Z,1005.11
2023-04-08T09:00:00.189Z,1005.21
2023-04-08T09:05:00.286Z,1005.23
2023-04-08T09:10:00.160Z,1005.31
2023-04-08T09:15:00.140Z,1005.48
2023-04-08T09:20:00.171Z,1005.42
2023-04-08T09:25:00.135Z,1005.44
2023-04-08T09:30:00.128Z,1005.49
2023-04-08T09:35:00.167Z,1005.59
2023-04-08T09:40:00.155Z,1005.48
2023-04-08T09:45:00.126Z,1005.66
2023-04-08T09:50:00.153Z,1005.63
2023-04-08T09:55:00.135Z,1005.71
2023-04-08T10:00:00.182Z,1005.67
2023-04-08T10:05:00.274Z,1005.74
2023-04-08T10:10:00.222Z,1005.72
2023-04-08T10:15:00.151Z,1005.77
2023-04-08T10:20:00.163Z,1005.73
2023-04-08T10:25:00.125Z,1005.7
2023-04-08T10:30:00.131Z,1005.7
2023-04-08T10:35:00.176Z,1005.73
2023-04-08T10:40:00.118Z,1005.8
2023-04-08T10:45:00.136Z,1005.76
2023-04-08T10:50:00.171Z,1005.82
2023-04-08T10:55:00.157Z,1005.8
2023-04-08T11:00:00.143Z,1005.87
2023-04-08T11:05:00.155Z,1005.81
2023-04-08T11:10:00.160Z,1005.88
2023-04-08T11:15:00.187Z,1005.79
2023-04-08T11:20:00.168Z,1005.91
2023-04-08T11:25:00.141Z,1005.77
2023-04-08T11:30:00.192Z,1005.88
2023-04-08T11:35:00.162Z,1005.81
2023-04-08T11:40:00.178Z,1005.94
2023-04-08T11:45:00.165Z,1005.86
2023-04-08T11:50:00.108Z,1005.88
2023-04-08T11:55:00.225Z,1005.81
2023-04-08T12:00:00.130Z,1005.79
2023-04-08T12:05:00.166Z,1005.76
2023-04-08T12:10:00.135Z,1005.92
2023-04-08T12:15:00.160Z,1005.94
2023-04-08T12:20:00.157Z,1005.86
2023-04-08T12:25:00.154Z,1005.92
2023-04-08T12:30:00.168Z,1005.92
2023-04-08T12:35:00.170Z,1005.93
2023-04-08T12:40:00.159Z,1005.97
2023-04-08T12:45:00.219Z,1005.93
2023-04-08T12:50:00.179Z,1005.82
2023-04-08T12:55:00.157Z,1005.8
2023-04-08T13:00:00.228Z,1005.87
2023-04-08T13:05:00.166Z,1005.8
2023-04-08T13:10:00.135Z,1005.77
2023-04-08T13:15:00.227Z,1005.95
2023-04-08T13:20:00.134Z,1005.83
2023-04-08T13:25:00.150Z,1005.88
2023-04-08T13:30:00.217Z,1005.83
2023-04-08T13:35:00.162Z,1005.92
2023-04-08T13:40:00.147Z,1006.41
2023-04-08T13:45:00.151Z,1006.39
2023-04-08T13:50:00.166Z,1006.5
2023-04-08T13:55:00.185Z,1006.42
2023-04-08T14:00:00.174Z,1006.49
2023-04-08T14:05:00.125Z,1005.87
2023-04-08T14:10:00.142Z,1005.81
2023-04-08T14:15:00.174Z,1005.86
2023-04-08T14:20:00.169Z,1005.99
2023-04-08T14:25:00.150Z,1005.98
2023-04-08T14:30:00.207Z,1005.97
2023-04-08T14:35:00.214Z,1006
2023-04-08T14:40:00.164Z,1006
2023-04-08T14:45:00.151Z,1005.98
2023-04-08T14:50:00.188Z,1005.98
2023-04-08T14:55:00.199Z,1005.99
2023-04-08T15:00:00.204Z,1006.02
2023-04-08T15:05:00.164Z,1006
2023-04-08T15:10:00.153Z,1005.93
2023-04-08T15:15:00.194Z,1006.03
2023-04-08T15:20:00.147Z,1006.06
2023-04-08T15:25:00.208Z,1006.05
2023-04-08T15:30:00.167Z,1005.99
2023-04-08T15:35:00.224Z,1005.94
2023-04-08T15:40:00.156Z,1006.11
2023-04-08T15:45:00.171Z,1006.19
2023-04-08T15:50:00.324Z,1006.22
2023-04-08T15:55:00.193Z,1006.22
2023-04-08T16:00:00.198Z,1006.26
2023-04-08T16:05:00.147Z,1006.4
2023-04-08T16:10:00.164Z,1006.43
2023-04-08T16:15:00.175Z,1006.58
2023-04-08T16:20:00.156Z,1006.47
2023-04-08T16:25:00.136Z,1006.61
2023-04-08T16:30:00.172Z,1006.58
2023-04-08T16:35:00.164Z,1006.65
2023-04-08T16:40:00.172Z,1006.76
2023-04-08T16:45:00.125Z,1006.85
2023-04-08T16:50:00.120Z,1006.85
2023-04-08T16:55:00.154Z,1006.9
2023-04-08T17:00:00.146Z,1006.97
2023-04-08T17:05:00.141Z,1007.04
2023-04-08T17:10:00.159Z,1007.05
2023-04-08T17:15:00.198Z,1007.07
2023-04-08T17:20:00.142Z,1007.14
2023-04-08T17:25:00.145Z,1007.26
2023-04-08T17:30:00.203Z,1007.28
2023-04-08T17:35:00.149Z,1007.37
2023-04-08T17:40:00.242Z,1007.36
2023-04-08T17:45:00.181Z,1007.37
2023-04-08T17:50:00.189Z,1007.49
2023-04-08T17:55:00.160Z,1007.6
2023-04-08T18:00:00.192Z,1007.62
2023-04-08T18:05:00.139Z,1007.64
2023-04-08T18:10:00.165Z,1007.7
2023-04-08T18:15:00.159Z,1007.8
2023-04-08T18:20:00.256Z,1007.9
2023-04-08T18:25:00.167Z,1007.93
2023-04-08T18:30:00.161Z,1007.91
2023-04-08T18:35:00.137Z,1007.91
2023-04-08T18:40:00.121Z,1008
2023-04-08T18:45:00.174Z,1008.06
2023-04-08T18:50:00.155Z,1008.04
2023-04-08T18:55:00.134Z,1008.07
2023-04-08T19:00:00.174Z,1008
2023-04-08T19:05:00.110Z,1008.11
2023-04-08T19:10:00.139Z,1008.11
2023-04-08T19:15:00.237Z,1008.09
2023-04-08T19:20:00.154Z,1008.17
2023-04-08T19:25:00.134Z,1008.22
2023-04-08T19:30:00.194Z,1008.12
2023-04-08T19:35:00.134Z,1007.99
2023-04-08T19:40:00.125Z,1007.99
2023-04-08T19:45:00.139Z,1008.1
2023-04-08T19:50:00.160Z,1008.08
2023-04-08T19:55:00.268Z,1008.04
2023-04-08T20:00:00.157Z,1008.06
2023-04-08T20:05:00.151Z,1008.13
2023-04-08T20:10:00.129Z,1008.16
2023-04-08T20:15:00.171Z,1008.19
2023-04-08T20:20:00.150Z,1008.18
2023-04-08T20:25:00.131Z,1008.84
2023-04-08T20:30:00.146Z,1008.82
2023-04-08T20:35:00.169Z,1008.95
2023-04-08T20:40:00.185Z,1009.01
2023-04-08T20:45:00.165Z,1009
2023-04-08T20:50:00.119Z,1008.94
2023-04-08T20:55:00.226Z,1008.96
2023-04-08T21:00:00.174Z,1008.94
2023-04-08T21:05:00.206Z,1008.87
2023-04-08T21:10:00.121Z,1008.87
2023-04-08T21:15:00.177Z,1008.85
2023-04-08T21:20:00.168Z,1008.94
2023-04-08T21:25:00.128Z,1009.01
2023-04-08T21:30:00.177Z,1008.94
2023-04-08T21:35:00.256Z,1008.93
2023-04-08T21:40:00.168Z,1009
2023-04-08T21:45:00.208Z,1008.98
2023-04-08T21:50:00.116Z,1009.01
2023-04-08T21:55:00.166Z,1009
2023-04-08T22:00:00.225Z,1009.05
2023-04-08T22:05:00.211Z,1009.01
2023-04-08T22:10:01.724Z,1008.92
2023-04-08T22:15:00.193Z,1009.05
2023-04-08T22:20:00.200Z,1008.93
2023-04-08T22:25:00.165Z,1008.91
2023-04-08T22:30:00.162Z,1008.93
2023-04-08T22:35:00.200Z,1009.02
2023-04-08T22:40:00.373Z,1008.92
2023-04-08T22:45:00.178Z,1008.91
2023-04-08T22:50:00.157Z,1008.91
2023-04-08T22:55:00.201Z,1008.95
2023-04-08T23:00:01.139Z,1009.06
2023-04-08T23:05:00.140Z,1009.12
2023-04-08T23:10:00.105Z,1009.13
2023-04-08T23:15:00.130Z,1009.11
2023-04-08T23:20:00.171Z,1009.13
2023-04-08T23:25:00.138Z,1009.11
2023-04-08T23:30:00.138Z,1009.17
2023-04-08T23:35:00.144Z,1009.08
2023-04-08T23:40:00.140Z,1009.07
2023-04-08T23:45:00.148Z,1009.12
2023-04-08T23:50:00.141Z,1008.99
2023-04-08T23:55:00.146Z,1008.99
